createdAt,value
2018-06-28T00:04:39.523Z,14.9
2018-06-28T00:09:39.505Z,14.9
2018-06-28T00:14:39.572Z,14.7
2018-06-28T00:19:39.623Z,14.7
2018-06-28T00:24:39.840Z,14.5
2018-06-28T00:29:39.896Z,14.5
2018-06-28T00:34:40.085Z,14.3
2018-06-28T00:39:40.324Z,14.3
2018-06-28T00:44:39.371Z,14.2
2018-06-28T00:49:39.547Z,14.2
2018-06-28T00:54:39.668Z,13.9
2018-06-28T00:59:39.769Z,13.9
2018-06-28T01:04:40.194Z,13.8
2018-06-28T01:09:40.298Z,13.8
2018-06-28T01:14:39.455Z,13.6
2018-06-28T01:19:39.590Z,13.6
2018-06-28T01:24:39.587Z,13.4
2018-06-28T01:29:39.624Z,13.4
2018-06-28T01:34:39.793Z,13.2
2018-06-28T01:39:39.836Z,13.2
2018-06-28T01:44:39.871Z,13.1
2018-06-28T01:49:40.017Z,13.1
2018-06-28T01:54:40.060Z,12.9
2018-06-28T01:59:40.253Z,12.9
2018-06-28T02:04:40.456Z,12.8
2018-06-28T02:09:39.588Z,12.8
2018-06-28T02:14:39.675Z,12.7
2018-06-28T02:19:39.722Z,12.7
2018-06-28T02:24:39.715Z,12.5
2018-06-28T02:29:39.819Z,12.5
2018-06-28T02:34:39.942Z,12.3
2018-06-28T02:39:40.017Z,12.3
2018-06-28T02:44:40.089Z,12.3
2018-06-28T02:49:40.155Z,12.3
2018-06-28T02:54:40.183Z,12.2
2018-06-28T02:59:40.217Z,12.2
2018-06-28T03:04:40.403Z,12.1
2018-06-28T03:09:39.959Z,12.1
2018-06-28T03:14:40.018Z,12
2018-06-28T03:19:40.274Z,12
2018-06-28T03:24:40.406Z,11.9
2018-06-28T03:29:40.114Z,11.9
2018-06-28T03:34:40.358Z,11.9
2018-06-28T03:39:40.441Z,11.9
2018-06-28T03:44:40.568Z,11.9
2018-06-28T03:49:39.739Z,11.9
2018-06-28T03:54:39.780Z,11.9
2018-06-28T03:59:39.919Z,11.9
2018-06-28T04:04:40.132Z,11.9
2018-06-28T04:09:40.402Z,11.9
2018-06-28T04:14:40.539Z,12
2018-06-28T04:19:39.725Z,12
2018-06-28T04:24:39.785Z,12.1
2018-06-28T04:29:39.964Z,12.1
2018-06-28T04:34:40.498Z,12.3
2018-06-28T04:39:40.192Z,12.3
2018-06-28T04:44:40.391Z,12.5
2018-06-28T04:49:39.686Z,12.5
2018-06-28T04:54:39.689Z,12.9
2018-06-28T04:59:39.960Z,12.9
2018-06-28T05:04:40.213Z,13.2
2018-06-28T05:09:40.523Z,13.2
2018-06-28T05:14:40.577Z,13.6
2018-06-28T05:19:39.701Z,13.6
2018-06-28T05:24:39.759Z,13.9
2018-06-28T05:29:39.884Z,13.9
2018-06-28T05:34:40.105Z,14.2
2018-06-28T05:39:40.151Z,14.2
2018-06-28T05:44:40.264Z,14.6
2018-06-28T05:49:40.392Z,14.6
2018-06-28T05:54:40.539Z,14.9
2018-06-28T05:59:39.616Z,14.9
2018-06-28T06:04:40.589Z,15.3
2018-06-28T06:09:40.030Z,15.3
2018-06-28T06:14:40.137Z,15.9
2018-06-28T06:19:40.540Z,15.9
2018-06-28T06:24:39.746Z,16.6
2018-06-28T06:29:39.850Z,16.6
2018-06-28T06:34:40.110Z,17.3
2018-06-28T06:39:40.217Z,17.3
2018-06-28T06:44:40.488Z,18
2018-06-28T06:49:39.766Z,18
2018-06-28T06:54:39.926Z,18.7
2018-06-28T06:59:40.066Z,18.7
2018-06-28T07:04:40.440Z,19.5
2018-06-28T07:09:39.945Z,19.5
2018-06-28T07:14:40.154Z,20.3
2018-06-28T07:19:40.416Z,20.3
2018-06-28T07:24:40.504Z,21
2018-06-28T07:29:40.499Z,21
2018-06-28T07:34:40.578Z,21.6
2018-06-28T07:39:40.709Z,21.6
2018-06-28T07:44:39.868Z,21.9
2018-06-28T07:49:40.085Z,21.9
2018-06-28T07:54:40.213Z,22.3
2018-06-28T07:59:40.282Z,22.3
2018-06-28T08:04:40.357Z,22.6
2018-06-28T08:09:40.585Z,22.6
2018-06-28T08:14:40.586Z,22.9
2018-06-28T08:19:40.771Z,22.9
2018-06-28T08:24:39.963Z,23.3
2018-06-28T08:29:40.088Z,23.3
2018-06-28T08:34:40.418Z,23.4
2018-06-28T08:39:40.539Z,23.4
2018-06-28T08:44:40.631Z,23.8
2018-06-28T08:49:40.805Z,23.8
2018-06-28T08:54:39.889Z,23.9
2018-06-28T08:59:40.174Z,23.9
2018-06-28T09:04:40.572Z,24.2
2018-06-28T09:09:40.537Z,24.2
2018-06-28T09:14:40.661Z,24.3
2018-06-28T09:19:39.976Z,24.3
2018-06-28T09:24:40.098Z,24.6
2018-06-28T09:29:40.186Z,24.6
2018-06-28T09:34:40.381Z,24.9
2018-06-28T09:39:40.189Z,24.9
2018-06-28T09:44:40.319Z,25
2018-06-28T09:49:40.403Z,25
2018-06-28T09:54:40.504Z,25
2018-06-28T09:59:40.652Z,25
2018-06-28T10:04:39.977Z,25.3
2018-06-28T10:09:40.784Z,25.3
2018-06-28T10:14:40.960Z,25.4
2018-06-28T10:19:40.189Z,25.4
2018-06-28T10:24:40.587Z,25.2
2018-06-28T10:29:40.773Z,25.2
2018-06-28T10:34:40.974Z,25.3
2018-06-28T10:39:40.121Z,25.3
2018-06-28T10:44:40.311Z,25.6
2018-06-28T10:49:40.348Z,25.6
2018-06-28T10:54:40.366Z,25.8
2018-06-28T10:59:40.689Z,25.8
2018-06-28T11:04:40.881Z,25.8
2018-06-28T11:09:40.372Z,25.8
2018-06-28T11:14:40.485Z,25.9
2018-06-28T11:19:40.577Z,25.9
2018-06-28T11:24:40.713Z,26.1
2018-06-28T11:29:40.845Z,26.1
2018-06-28T11:34:41.055Z,26.6
2018-06-28T11:39:40.245Z,26.6
2018-06-28T11:44:40.421Z,26.5
2018-06-28T11:49:40.510Z,26.5
2018-06-28T11:54:40.595Z,26.4
2018-06-28T11:59:40.747Z,26.4
2018-06-28T12:04:41.152Z,26.3
2018-06-28T12:09:40.136Z,26.3
2018-06-28T12:14:40.307Z,26.4
2018-06-28T12:19:40.448Z,26.4
2018-06-28T12:24:40.673Z,26.4
2018-06-28T12:29:40.813Z,26.4
2018-06-28T12:34:40.857Z,26.6
2018-06-28T12:39:40.276Z,26.6
2018-06-28T12:44:40.415Z,26.5
2018-06-28T12:49:40.545Z,26.5
2018-06-28T12:54:40.734Z,26.4
2018-06-28T12:59:40.846Z,26.4
2018-06-28T13:04:41.042Z,26.8
2018-06-28T13:09:41.179Z,26.8
2018-06-28T13:14:40.873Z,26.8
2018-06-28T13:19:41.009Z,26.8
2018-06-28T13:24:40.673Z,27.1
2018-06-28T13:29:40.746Z,27.1
2018-06-28T13:34:40.941Z,26.9
2018-06-28T13:39:41.121Z,26.9
2018-06-28T13:44:40.237Z,27.2
2018-06-28T13:49:40.357Z,27.2
2018-06-28T13:54:40.541Z,27.2
2018-06-28T13:59:40.641Z,27.2
2018-06-28T14:04:40.951Z,27.1
2018-06-28T14:09:41.095Z,27.1
2018-06-28T14:14:40.501Z,27.2
2018-06-28T14:19:40.556Z,27.2
2018-06-28T14:24:40.627Z,27.2
2018-06-28T14:29:40.681Z,27.2
2018-06-28T14:34:40.841Z,26.9
2018-06-28T14:39:40.913Z,26.9
2018-06-28T14:44:41.000Z,26.8
2018-06-28T14:49:41.194Z,26.8
2018-06-28T14:54:40.284Z,26.8
2018-06-28T14:59:40.444Z,26.8
2018-06-28T15:04:40.653Z,26.8
2018-06-28T15:09:40.945Z,26.8
2018-06-28T15:14:40.785Z,26.7
2018-06-28T15:19:40.893Z,26.7
2018-06-28T15:24:40.999Z,26.9
2018-06-28T15:29:41.192Z,26.9
2018-06-28T15:34:41.394Z,26.9
2018-06-28T15:39:40.482Z,26.9
2018-06-28T15:44:40.612Z,26.9
2018-06-28T15:49:40.722Z,26.9
2018-06-28T15:54:40.794Z,26.8
2018-06-28T15:59:40.961Z,26.8
2018-06-28T16:04:41.228Z,26.7
2018-06-28T16:09:41.291Z,26.7
2018-06-28T16:14:41.022Z,26.6
2018-06-28T16:19:41.275Z,26.6
2018-06-28T16:24:40.416Z,26.4
2018-06-28T16:29:41.164Z,26.4
2018-06-28T16:34:41.487Z,26.2
2018-06-28T16:39:40.640Z,26.2
2018-06-28T16:44:40.790Z,26.1
2018-06-28T16:49:40.762Z,26.1
2018-06-28T16:54:40.907Z,25.8
2018-06-28T16:59:41.113Z,25.8
2018-06-28T17:04:41.459Z,25.6
2018-06-28T17:09:40.570Z,25.6
2018-06-28T17:14:40.469Z,25.4
2018-06-28T17:19:40.429Z,25.4
2018-06-28T17:24:40.453Z,25.1
2018-06-28T17:29:40.568Z,25.1
2018-06-28T17:34:40.836Z,24.8
2018-06-28T17:39:40.961Z,24.8
2018-06-28T17:44:41.195Z,24.4
2018-06-28T17:49:41.344Z,24.4
2018-06-28T17:54:40.496Z,24.2
2018-06-28T17:59:40.692Z,24.2
2018-06-28T18:04:40.856Z,23.9
2018-06-28T18:09:41.191Z,23.9
2018-06-28T18:14:40.954Z,23.7
2018-06-28T18:19:40.996Z,23.7
2018-06-28T18:24:41.079Z,23.4
2018-06-28T18:29:41.232Z,23.4
2018-06-28T18:34:41.428Z,23.2
2018-06-28T18:39:40.736Z,23.2
2018-06-28T18:44:40.872Z,22.9
2018-06-28T18:49:41.019Z,22.9
2018-06-28T18:54:41.104Z,22.7
2018-06-28T18:59:41.191Z,22.7
2018-06-28T19:04:41.356Z,22.5
2018-06-28T19:09:41.505Z,22.5
2018-06-28T19:14:40.943Z,22.2
2018-06-28T19:19:40.971Z,22.2
2018-06-28T19:24:41.218Z,22
2018-06-28T19:29:41.295Z,22
2018-06-28T19:34:41.607Z,21.7
2018-06-28T19:39:40.704Z,21.7
2018-06-28T19:44:40.844Z,21.4
2018-06-28T19:49:40.999Z,21.4
2018-06-28T19:54:41.342Z,21.1
2018-06-28T19:59:41.513Z,21.1
2018-06-28T20:04:40.719Z,20.7
2018-06-28T20:09:40.849Z,20.7
2018-06-28T20:14:40.996Z,20.2
2018-06-28T20:19:41.093Z,20.2
2018-06-28T20:24:41.105Z,19.9
2018-06-28T20:29:41.257Z,19.9
2018-06-28T20:34:41.418Z,19.5
2018-06-28T20:39:41.461Z,19.5
2018-06-28T20:44:41.764Z,19.1
2018-06-28T20:49:40.898Z,19.1
2018-06-28T20:54:40.974Z,18.7
2018-06-28T20:59:41.037Z,18.7
2018-06-28T21:04:41.207Z,18.3
2018-06-28T21:09:41.353Z,18.3
2018-06-28T21:14:41.448Z,17.9
2018-06-28T21:19:41.587Z,17.9
2018-06-28T21:24:40.695Z,17.7
2018-06-28T21:29:40.815Z,17.7
2018-06-28T21:34:40.987Z,17.3
2018-06-28T21:39:41.069Z,17.3
2018-06-28T21:44:41.190Z,17.1
2018-06-28T21:49:41.368Z,17.1
2018-06-28T21:54:41.382Z,16.8
2018-06-28T21:59:41.409Z,16.8
2018-06-28T22:04:41.577Z,16.6
2018-06-28T22:09:41.806Z,16.6
2018-06-28T22:14:41.364Z,16.3
2018-06-28T22:19:41.480Z,16.3
2018-06-28T22:24:41.535Z,16.1
2018-06-28T22:29:41.692Z,16.1
2018-06-28T22:34:41.896Z,15.9
2018-06-28T22:39:41.039Z,15.9
2018-06-28T22:44:41.143Z,15.7
2018-06-28T22:49:41.220Z,15.7
2018-06-28T22:54:41.275Z,15.4
2018-06-28T22:59:41.389Z,15.4
2018-06-28T23:04:41.024Z,15.3
2018-06-28T23:09:41.111Z,15.3
2018-06-28T23:14:41.756Z,15.1
2018-06-28T23:19:41.866Z,15.1
2018-06-28T23:24:40.987Z,14.9
2018-06-28T23:29:41.074Z,14.9
2018-06-28T23:34:41.199Z,14.8
2018-06-28T23:39:41.205Z,14.8
2018-06-28T23:44:41.291Z,14.6
2018-06-28T23:49:41.385Z,14.6
2018-06-28T23:54:41.378Z,14.4
2018-06-28T23:59:41.409Z,14.4
